createdAt,value
2019-02-10T00:01:00.241Z,18.49
2019-02-10T00:01:59.225Z,18.46
2019-02-10T00:02:59.280Z,18.44
2019-02-10T00:03:58.682Z,18.47
2019-02-10T00:05:00.581Z,18.46
2019-02-10T00:05:59.237Z,18.46
2019-02-10T00:06:58.769Z,18.44
2019-02-10T00:07:59.047Z,18.44
2019-02-10T00:08:59.008Z,18.43
2019-02-10T00:09:58.976Z,18.44
2019-02-10T00:10:59.187Z,18.44
2019-02-10T00:11:58.577Z,18.44
2019-02-10T00:13:00.069Z,18.41
2019-02-10T00:13:58.637Z,18.43
2019-02-10T00:14:59.111Z,18.43
2019-02-10T00:15:58.745Z,18.41
2019-02-10T00:16:59.459Z,18.41
2019-02-10T00:17:58.798Z,18.39
2019-02-10T00:18:59.005Z,18.39
2019-02-10T00:19:59.211Z,18.39
2019-02-10T00:20:59.104Z,18.39
2019-02-10T00:21:59.234Z,18.37
2019-02-10T00:22:58.755Z,18.37
2019-02-10T00:23:59.227Z,18.39
2019-02-10T00:24:58.551Z,18.37
2019-02-10T00:25:59.275Z,18.39
2019-02-10T00:26:59.200Z,18.37
2019-02-10T00:28:00.085Z,18.37
2019-02-10T00:28:58.876Z,18.37
2019-02-10T00:29:59.311Z,18.37
2019-02-10T00:30:59.081Z,18.36
2019-02-10T00:31:58.581Z,18.36
2019-02-10T00:32:59.368Z,18.36
2019-02-10T00:33:59.981Z,18.35
2019-02-10T00:34:59.733Z,18.33
2019-02-10T00:36:00.553Z,18.32
2019-02-10T00:36:59.083Z,18.35
2019-02-10T00:37:59.350Z,18.33
2019-02-10T00:38:58.712Z,18.32
2019-02-10T00:39:58.724Z,18.33
2019-02-10T00:40:59.067Z,18.32
2019-02-10T00:41:59.659Z,18.32
2019-02-10T00:42:59.188Z,18.32
2019-02-10T00:43:59.017Z,18.3
2019-02-10T00:44:58.898Z,18.29
2019-02-10T00:45:58.989Z,18.29
2019-02-10T00:46:59.225Z,18.29
2019-02-10T00:47:59.698Z,18.32
2019-02-10T00:48:58.882Z,18.3
2019-02-10T00:49:58.813Z,18.28
2019-02-10T00:50:58.967Z,18.28
2019-02-10T00:51:58.857Z,18.3
2019-02-10T00:52:58.807Z,18.28
2019-02-10T00:53:58.803Z,18.29
2019-02-10T00:54:59.485Z,18.28
2019-02-10T00:55:58.872Z,18.28
2019-02-10T00:56:58.993Z,18.26
2019-02-10T00:57:58.448Z,18.28
2019-02-10T00:58:58.976Z,18.25
2019-02-10T00:59:59.301Z,18.26
2019-02-10T01:00:59.831Z,18.25
2019-02-10T01:01:59.137Z,18.26
2019-02-10T01:02:58.698Z,18.25
2019-02-10T01:03:58.466Z,18.25
2019-02-10T01:04:58.465Z,18.25
2019-02-10T01:05:59.243Z,18.23
2019-02-10T01:06:59.146Z,18.23
2019-02-10T01:07:59.079Z,18.22
2019-02-10T01:08:59.112Z,18.23
2019-02-10T01:09:59.962Z,18.26
2019-02-10T01:11:00.536Z,18.22
2019-02-10T01:11:58.879Z,18.21
2019-02-10T01:12:58.517Z,18.22
2019-02-10T01:13:58.897Z,18.22
2019-02-10T01:14:58.403Z,18.21
2019-02-10T01:15:59.220Z,18.19
2019-02-10T01:16:58.932Z,18.22
2019-02-10T01:17:58.821Z,18.22
2019-02-10T01:18:59.152Z,18.19
2019-02-10T01:19:58.728Z,18.19
2019-02-10T01:20:59.059Z,18.18
2019-02-10T01:22:00.195Z,18.19
2019-02-10T01:22:59.012Z,18.19
2019-02-10T01:23:58.503Z,18.16
2019-02-10T01:24:59.165Z,18.16
2019-02-10T01:25:58.562Z,18.16
2019-02-10T01:26:58.934Z,18.16
2019-02-10T01:27:58.924Z,18.18
2019-02-10T01:28:58.903Z,18.16
2019-02-10T01:29:59.080Z,18.16
2019-02-10T01:30:58.662Z,18.18
2019-02-10T01:31:58.597Z,18.16
2019-02-10T01:32:59.022Z,18.15
2019-02-10T01:33:58.414Z,18.18
2019-02-10T01:34:59.636Z,18.18
2019-02-10T01:35:59.201Z,18.15
2019-02-10T01:36:59.012Z,18.13
2019-02-10T01:37:58.844Z,18.16
2019-02-10T01:38:58.899Z,18.15
2019-02-10T01:39:58.993Z,18.15
2019-02-10T01:41:00.158Z,18.13
2019-02-10T01:41:59.991Z,18.12
2019-02-10T01:42:58.497Z,18.11
2019-02-10T01:43:58.598Z,18.13
2019-02-10T01:44:58.806Z,18.13
2019-02-10T01:45:58.868Z,18.13
2019-02-10T01:46:59.250Z,18.12
2019-02-10T01:47:59.203Z,18.11
2019-02-10T01:48:59.511Z,18.12
2019-02-10T01:49:59.632Z,18.11
2019-02-10T01:51:00.438Z,18.09
2019-02-10T01:51:58.775Z,18.09
2019-02-10T01:52:58.903Z,18.08
2019-02-10T01:53:58.558Z,18.09
2019-02-10T01:54:59.037Z,18.09
2019-02-10T01:55:59.713Z,18.08
2019-02-10T01:56:59.072Z,18.08
2019-02-10T01:57:58.886Z,18.08
2019-02-10T01:58:59.034Z,18.07
2019-02-10T01:59:58.508Z,18.07
2019-02-10T02:00:58.612Z,18.08
2019-02-10T02:01:58.440Z,18.07
2019-02-10T02:02:58.579Z,18.07
2019-02-10T02:03:59.133Z,18.07
2019-02-10T02:04:58.478Z,18.04
2019-02-10T02:05:59.382Z,18.05
2019-02-10T02:06:58.448Z,18.05
2019-02-10T02:08:00.150Z,18.04
2019-02-10T02:08:58.979Z,18.05
2019-02-10T02:09:58.884Z,18.04
2019-02-10T02:10:59.105Z,18.04
2019-02-10T02:11:59.184Z,18.04
2019-02-10T02:12:59.838Z,18.04
2019-02-10T02:13:58.669Z,18.02
2019-02-10T02:14:59.180Z,18.02
2019-02-10T02:15:59.130Z,18.04
2019-02-10T02:16:58.599Z,18.02
2019-02-10T02:17:58.595Z,18.02
2019-02-10T02:18:58.442Z,18.02
2019-02-10T02:19:58.885Z,18.02
2019-02-10T02:20:59.222Z,18.04
2019-02-10T02:21:58.855Z,18.02
2019-02-10T02:22:59.609Z,18.02
2019-02-10T02:23:58.879Z,18.02
2019-02-10T02:24:59.026Z,18.02
2019-02-10T02:25:58.394Z,18.01
2019-02-10T02:26:58.949Z,18.01
2019-02-10T02:27:58.685Z,18
2019-02-10T02:28:58.583Z,18.02
2019-02-10T02:29:58.401Z,18.01
2019-02-10T02:30:59.465Z,18
2019-02-10T02:31:59.172Z,18
2019-02-10T02:32:58.743Z,18.01
2019-02-10T02:33:59.149Z,17.98
2019-02-10T02:34:58.714Z,17.98
2019-02-10T02:35:59.006Z,18.01
2019-02-10T02:37:08.580Z,17.98
2019-02-10T02:37:58.749Z,17.98
2019-02-10T02:38:59.568Z,17.97
2019-02-10T02:39:58.735Z,17.95
2019-02-10T02:40:59.298Z,17.95
2019-02-10T02:41:58.501Z,17.94
2019-02-10T02:42:58.405Z,17.97
2019-02-10T02:43:58.748Z,17.97
2019-02-10T02:44:59.080Z,17.93
2019-02-10T02:45:59.046Z,17.95
2019-02-10T02:46:59.209Z,17.93
2019-02-10T02:48:00.513Z,17.94
2019-02-10T02:48:58.421Z,17.94
2019-02-10T02:49:58.514Z,17.95
2019-02-10T02:50:58.353Z,17.94
2019-02-10T02:52:00.452Z,17.94
2019-02-10T02:52:58.904Z,17.93
2019-02-10T02:53:58.825Z,17.94
2019-02-10T02:54:58.438Z,17.93
2019-02-10T02:55:58.977Z,17.89
2019-02-10T02:56:59.180Z,17.91
2019-02-10T02:58:00.517Z,17.89
2019-02-10T02:58:58.549Z,17.91
2019-02-10T02:59:58.500Z,17.91
2019-02-10T03:00:58.861Z,17.91
2019-02-10T03:01:58.850Z,17.89
2019-02-10T03:02:58.867Z,17.89
2019-02-10T03:03:59.367Z,17.91
2019-02-10T03:04:58.549Z,17.91
2019-02-10T03:05:58.823Z,17.89
2019-02-10T03:06:58.533Z,17.88
2019-02-10T03:07:59.209Z,17.88
2019-02-10T03:08:59.418Z,17.87
2019-02-10T03:09:58.824Z,17.88
2019-02-10T03:10:58.661Z,17.88
2019-02-10T03:11:58.958Z,17.89
2019-02-10T03:12:58.837Z,17.84
2019-02-10T03:13:58.546Z,17.87
2019-02-10T03:14:59.222Z,17.87
2019-02-10T03:15:59.224Z,17.85
2019-02-10T03:16:59.176Z,17.89
2019-02-10T03:17:58.479Z,17.88
2019-02-10T03:18:59.097Z,17.85
2019-02-10T03:19:59.728Z,17.88
2019-02-10T03:20:59.213Z,17.88
2019-02-10T03:21:59.138Z,17.85
2019-02-10T03:22:58.542Z,17.87
2019-02-10T03:23:58.541Z,17.87
2019-02-10T03:24:59.561Z,17.85
2019-02-10T03:25:58.847Z,17.84
2019-02-10T03:26:59.460Z,17.84
2019-02-10T03:27:59.472Z,17.84
2019-02-10T03:28:58.535Z,17.82
2019-02-10T03:29:58.851Z,17.82
2019-02-10T03:30:59.663Z,17.84
2019-02-10T03:31:58.945Z,17.82
2019-02-10T03:32:58.927Z,17.84
2019-02-10T03:33:58.991Z,17.82
2019-02-10T03:34:59.567Z,17.82
2019-02-10T03:35:59.366Z,17.82
2019-02-10T03:36:58.567Z,17.81
2019-02-10T03:38:00.497Z,17.8
2019-02-10T03:38:59.345Z,17.82
2019-02-10T03:39:59.151Z,17.82
2019-02-10T03:40:59.316Z,17.8
2019-02-10T03:41:59.032Z,17.81
2019-02-10T03:42:59.259Z,17.8
2019-02-10T03:43:59.457Z,17.8
2019-02-10T03:44:58.494Z,17.8
2019-02-10T03:45:58.680Z,17.78
2019-02-10T03:46:59.021Z,17.77
2019-02-10T03:47:58.497Z,17.78
2019-02-10T03:48:58.662Z,17.8
2019-02-10T03:49:58.591Z,17.77
2019-02-10T03:50:58.894Z,17.77
2019-02-10T03:51:59.199Z,17.78
2019-02-10T03:52:58.555Z,17.76
2019-02-10T03:53:58.845Z,17.76
2019-02-10T03:54:58.507Z,17.77
2019-02-10T03:55:58.718Z,17.78
2019-02-10T03:56:58.547Z,17.76
2019-02-10T03:57:59.274Z,17.76
2019-02-10T03:58:58.751Z,17.77
2019-02-10T03:59:58.605Z,17.77
2019-02-10T04:00:59.923Z,17.76
2019-02-10T04:01:58.924Z,17.76
2019-02-10T04:03:00.117Z,17.76
2019-02-10T04:03:59.251Z,17.76
2019-02-10T04:04:58.292Z,17.76
2019-02-10T04:05:58.761Z,17.76
2019-02-10T04:06:58.695Z,17.74
2019-02-10T04:08:00.383Z,17.74
2019-02-10T04:08:59.542Z,17.74
2019-02-10T04:09:58.496Z,17.76
2019-02-10T04:10:58.448Z,17.74
2019-02-10T04:11:59.352Z,17.73
2019-02-10T04:12:58.888Z,17.73
2019-02-10T04:14:00.407Z,17.7
2019-02-10T04:14:58.804Z,17.71
2019-02-10T04:15:59.289Z,17.7
2019-02-10T04:17:00.442Z,17.68
2019-02-10T04:17:58.834Z,17.7
2019-02-10T04:18:58.488Z,17.71
2019-02-10T04:19:58.658Z,17.71
2019-02-10T04:20:58.708Z,17.7
2019-02-10T04:21:59.205Z,17.68
2019-02-10T04:22:58.489Z,17.68
2019-02-10T04:23:58.439Z,17.7
2019-02-10T04:24:58.786Z,17.68
2019-02-10T04:25:58.546Z,17.7
2019-02-10T04:26:58.636Z,17.68
2019-02-10T04:27:59.466Z,17.7
2019-02-10T04:28:58.957Z,17.7
2019-02-10T04:29:58.500Z,17.68
2019-02-10T04:30:59.173Z,17.68
2019-02-10T04:31:58.912Z,17.67
2019-02-10T04:32:59.212Z,17.68
2019-02-10T04:33:59.326Z,17.67
2019-02-10T04:34:58.796Z,17.67
2019-02-10T04:35:58.540Z,17.66
2019-02-10T04:36:59.067Z,17.67
2019-02-10T04:37:58.598Z,17.68
2019-02-10T04:38:58.659Z,17.67
2019-02-10T04:40:00.512Z,17.66
2019-02-10T04:40:58.570Z,17.66
2019-02-10T04:41:58.787Z,17.66
2019-02-10T04:42:58.892Z,17.66
2019-02-10T04:43:58.726Z,17.67
2019-02-10T04:44:58.583Z,17.64
2019-02-10T04:45:59.252Z,17.66
2019-02-10T04:46:59.238Z,17.67
2019-02-10T04:47:59.424Z,17.66
2019-02-10T04:48:58.771Z,17.67
2019-02-10T04:49:59.019Z,17.67
2019-02-10T04:50:58.943Z,17.66
2019-02-10T04:51:58.806Z,17.67
2019-02-10T04:52:58.552Z,17.67
2019-02-10T04:53:59.024Z,17.68
2019-02-10T04:54:58.465Z,17.67
2019-02-10T04:55:58.505Z,17.7
2019-02-10T04:56:58.718Z,17.7
2019-02-10T04:57:58.795Z,17.71
2019-02-10T04:58:58.733Z,17.73
2019-02-10T05:00:00.559Z,17.73
2019-02-10T05:00:58.360Z,17.74
2019-02-10T05:01:59.531Z,17.76
2019-02-10T05:02:58.655Z,17.77
2019-02-10T05:03:58.399Z,17.77
2019-02-10T05:04:59.101Z,17.81
2019-02-10T05:05:58.535Z,17.78
2019-02-10T05:06:58.779Z,17.82
2019-02-10T05:07:58.501Z,17.84
2019-02-10T05:09:00.261Z,17.82
2019-02-10T05:09:58.864Z,17.85
2019-02-10T05:11:00.473Z,17.85
2019-02-10T05:11:58.725Z,17.88
2019-02-10T05:12:58.916Z,17.89
2019-02-10T05:13:58.824Z,17.88
2019-02-10T05:14:58.855Z,17.93
2019-02-10T05:15:58.633Z,17.94
2019-02-10T05:16:58.629Z,17.94
2019-02-10T05:17:58.886Z,17.95
2019-02-10T05:18:58.650Z,17.98
2019-02-10T05:20:00.443Z,18.01
2019-02-10T05:20:59.289Z,18.01
2019-02-10T05:21:59.075Z,18.02
2019-02-10T05:23:00.446Z,18.05
2019-02-10T05:24:04.254Z,18.05
2019-02-10T05:25:00.588Z,18.08
2019-02-10T05:25:58.828Z,18.08
2019-02-10T05:26:58.725Z,18.12
2019-02-10T05:27:59.739Z,18.12
2019-02-10T05:28:58.902Z,18.15
2019-02-10T05:29:59.045Z,18.13
2019-02-10T05:30:58.666Z,18.18
2019-02-10T05:31:58.525Z,18.18
2019-02-10T05:32:58.494Z,18.16
2019-02-10T05:33:58.694Z,18.19
2019-02-10T05:34:59.185Z,18.21
2019-02-10T05:35:58.777Z,18.23
2019-02-10T05:36:58.869Z,18.25
2019-02-10T05:38:04.990Z,18.25
2019-02-10T05:38:58.483Z,18.25
2019-02-10T05:39:58.339Z,18.28
2019-02-10T05:40:58.401Z,18.29
2019-02-10T05:41:58.633Z,18.29
2019-02-10T05:42:58.610Z,18.3
2019-02-10T05:43:58.356Z,18.32
2019-02-10T05:44:58.920Z,18.33
2019-02-10T05:45:58.732Z,18.36
2019-02-10T05:46:58.556Z,18.36
2019-02-10T05:47:59.094Z,18.37
2019-02-10T05:48:58.888Z,18.4
2019-02-10T05:49:58.669Z,18.41
2019-02-10T05:50:58.698Z,18.4
2019-02-10T05:51:58.701Z,18.4
2019-02-10T05:52:58.835Z,18.43
2019-02-10T05:53:59.053Z,18.43
2019-02-10T05:54:59.314Z,18.44
2019-02-10T05:55:58.982Z,18.47
2019-02-10T05:57:00.295Z,18.46
2019-02-10T05:57:58.928Z,18.46
2019-02-10T05:58:58.512Z,18.49
2019-02-10T05:59:59.046Z,18.49
2019-02-10T06:01:00.391Z,18.5
2019-02-10T06:01:58.771Z,18.51
2019-02-10T06:02:59.290Z,18.49
2019-02-10T06:03:58.921Z,18.53
2019-02-10T06:05:00.043Z,18.56
2019-02-10T06:05:59.216Z,18.54
2019-02-10T06:06:58.442Z,18.56
2019-02-10T06:07:58.798Z,18.57
2019-02-10T06:08:59.023Z,18.58
2019-02-10T06:09:59.736Z,18.58
2019-02-10T06:10:58.461Z,18.58
2019-02-10T06:11:59.742Z,18.57
2019-02-10T06:12:58.328Z,18.56
2019-02-10T06:13:58.493Z,18.46
2019-02-10T06:14:58.954Z,18.44
2019-02-10T06:15:59.344Z,18.41
2019-02-10T06:16:58.958Z,18.36
2019-02-10T06:17:59.098Z,18.32
2019-02-10T06:18:58.984Z,18.32
2019-02-10T06:19:59.394Z,18.26
2019-02-10T06:20:59.318Z,18.23
2019-02-10T06:21:59.080Z,18.22
2019-02-10T06:22:58.806Z,18.21
2019-02-10T06:23:58.474Z,18.18
2019-02-10T06:24:58.452Z,18.16
2019-02-10T06:25:58.778Z,18.13
2019-02-10T06:26:58.814Z,18.12
2019-02-10T06:27:58.382Z,18.15
2019-02-10T06:28:58.401Z,18.18
2019-02-10T06:29:58.749Z,18.18
2019-02-10T06:30:58.774Z,18.21
2019-02-10T06:31:59.266Z,18.25
2019-02-10T06:32:58.307Z,18.28
2019-02-10T06:33:58.492Z,18.28
2019-02-10T06:34:59.413Z,18.32
2019-02-10T06:35:58.611Z,18.32
2019-02-10T06:36:58.463Z,18.35
2019-02-10T06:37:59.018Z,18.39
2019-02-10T06:38:58.934Z,18.39
2019-02-10T06:40:00.791Z,18.4
2019-02-10T06:40:58.708Z,18.43
2019-02-10T06:41:58.825Z,18.46
2019-02-10T06:42:59.933Z,18.46
2019-02-10T06:43:59.155Z,18.49
2019-02-10T06:44:58.745Z,18.5
2019-02-10T06:45:59.356Z,18.53
2019-02-10T06:46:58.591Z,18.56
2019-02-10T06:48:00.039Z,18.54
2019-02-10T06:48:59.088Z,18.57
2019-02-10T06:49:58.800Z,18.57
2019-02-10T06:50:58.484Z,18.58
2019-02-10T06:51:58.402Z,18.6
2019-02-10T06:52:58.251Z,18.64
2019-02-10T06:53:58.391Z,18.62
2019-02-10T06:54:59.145Z,18.66
2019-02-10T06:55:59.427Z,18.66
2019-02-10T06:56:58.977Z,18.67
2019-02-10T06:57:58.365Z,18.67
2019-02-10T06:58:58.365Z,18.68
2019-02-10T06:59:59.277Z,18.73
2019-02-10T07:00:58.339Z,18.71
2019-02-10T07:01:58.219Z,18.74
2019-02-10T07:02:58.891Z,18.73
2019-02-10T07:03:59.137Z,18.75
2019-02-10T07:04:58.807Z,18.75
2019-02-10T07:05:58.812Z,18.75
2019-02-10T07:07:00.284Z,18.78
2019-02-10T07:07:59.338Z,18.77
2019-02-10T07:08:58.344Z,18.78
2019-02-10T07:09:58.490Z,18.83
2019-02-10T07:10:58.738Z,18.83
2019-02-10T07:12:00.222Z,18.81
2019-02-10T07:12:58.736Z,18.83
2019-02-10T07:13:58.478Z,18.85
2019-02-10T07:14:58.772Z,18.85
2019-02-10T07:15:58.683Z,18.87
2019-02-10T07:16:58.671Z,18.88
2019-02-10T07:17:59.327Z,18.88
2019-02-10T07:18:58.528Z,18.9
2019-02-10T07:19:58.782Z,18.9
2019-02-10T07:20:58.381Z,18.92
2019-02-10T07:21:58.800Z,18.91
2019-02-10T07:22:58.602Z,18.92
2019-02-10T07:23:59.215Z,18.92
2019-02-10T07:24:58.366Z,18.94
2019-02-10T07:25:58.200Z,18.94
2019-02-10T07:26:58.515Z,18.94
2019-02-10T07:28:00.171Z,18.94
2019-02-10T07:28:58.390Z,18.95
2019-02-10T07:29:59.374Z,18.95
2019-02-10T07:30:58.970Z,18.95
2019-02-10T07:31:58.648Z,18.94
2019-02-10T07:32:58.694Z,18.97
2019-02-10T07:33:59.214Z,18.98
2019-02-10T07:35:00.500Z,18.99
2019-02-10T07:35:58.829Z,18.95
2019-02-10T07:36:58.702Z,18.98
2019-02-10T07:37:58.743Z,18.99
2019-02-10T07:38:59.202Z,18.97
2019-02-10T07:39:58.730Z,18.99
2019-02-10T07:40:58.607Z,19.01
2019-02-10T07:41:58.851Z,19.02
2019-02-10T07:42:58.775Z,19.03
2019-02-10T07:43:58.569Z,19.03
2019-02-10T07:44:58.406Z,19.02
2019-02-10T07:45:58.680Z,19.02
2019-02-10T07:46:58.339Z,19.03
2019-02-10T07:47:58.740Z,19.03
2019-02-10T07:48:58.780Z,19.06
2019-02-10T07:49:59.198Z,19.05
2019-02-10T07:50:59.246Z,19.08
2019-02-10T07:51:58.919Z,19.06
2019-02-10T07:53:00.485Z,19.06
2019-02-10T07:53:59.058Z,19.12
2019-02-10T07:54:58.770Z,19.09
2019-02-10T07:55:58.269Z,19.08
2019-02-10T07:56:58.998Z,19.08
2019-02-10T07:57:58.975Z,19.09
2019-02-10T07:58:58.643Z,19.11
2019-02-10T07:59:58.499Z,19.11
2019-02-10T08:00:58.911Z,19.13
2019-02-10T08:01:58.797Z,19.11
2019-02-10T08:02:58.612Z,19.12
2019-02-10T08:03:58.422Z,19.12
2019-02-10T08:04:59.096Z,19.11
2019-02-10T08:06:00.043Z,19.13
2019-02-10T08:06:58.829Z,19.15
2019-02-10T08:07:58.713Z,19.15
2019-02-10T08:08:58.348Z,19.12
2019-02-10T08:09:58.465Z,19.15
2019-02-10T08:10:58.390Z,19.13
2019-02-10T08:11:58.774Z,19.15
2019-02-10T08:13:00.315Z,19.18
2019-02-10T08:13:58.502Z,19.15
2019-02-10T08:14:58.325Z,19.13
2019-02-10T08:15:58.851Z,19.16
2019-02-10T08:16:58.306Z,19.18
2019-02-10T08:17:58.705Z,19.16
2019-02-10T08:18:58.699Z,19.19
2019-02-10T08:19:58.857Z,19.16
2019-02-10T08:20:58.812Z,19.19
2019-02-10T08:21:58.348Z,19.19
2019-02-10T08:22:59.663Z,19.16
2019-02-10T08:23:58.739Z,19.19
2019-02-10T08:25:00.435Z,19.18
2019-02-10T08:25:58.634Z,19.18
2019-02-10T08:26:58.855Z,19.19
2019-02-10T08:27:59.499Z,19.2
2019-02-10T08:28:59.302Z,19.22
2019-02-10T08:29:58.863Z,19.18
2019-02-10T08:30:58.202Z,19.22
2019-02-10T08:31:58.896Z,19.2
2019-02-10T08:32:59.404Z,19.22
2019-02-10T08:33:58.846Z,19.2
2019-02-10T08:34:58.935Z,19.22
2019-02-10T08:36:00.212Z,19.23
2019-02-10T08:36:58.281Z,19.2
2019-02-10T08:37:58.584Z,19.25
2019-02-10T08:38:59.065Z,19.2
2019-02-10T08:39:58.310Z,19.25
2019-02-10T08:40:59.261Z,19.26
2019-02-10T08:41:59.289Z,19.26
2019-02-10T08:42:58.890Z,19.26
2019-02-10T08:43:58.575Z,19.29
2019-02-10T08:44:58.985Z,19.27
2019-02-10T08:45:58.471Z,19.25
2019-02-10T08:46:58.514Z,19.27
2019-02-10T08:47:58.470Z,19.29
2019-02-10T08:48:58.557Z,19.27
2019-02-10T08:49:58.869Z,19.3
2019-02-10T08:50:59.042Z,19.33
2019-02-10T08:51:58.256Z,19.33
2019-02-10T08:53:00.171Z,19.32
2019-02-10T08:54:00.334Z,19.3
2019-02-10T08:54:58.458Z,19.32
2019-02-10T08:55:58.972Z,19.33
2019-02-10T08:56:59.935Z,19.3
2019-02-10T08:57:58.784Z,19.33
2019-02-10T08:58:58.787Z,19.32
2019-02-10T08:59:58.826Z,19.3
2019-02-10T09:00:58.391Z,19.33
2019-02-10T09:02:00.036Z,19.35
2019-02-10T09:02:58.439Z,19.33
2019-02-10T09:03:58.522Z,19.32
2019-02-10T09:04:58.718Z,19.33
2019-02-10T09:05:58.765Z,19.33
2019-02-10T09:06:59.670Z,19.33
2019-02-10T09:07:58.978Z,19.32
2019-02-10T09:09:03.103Z,19.33
2019-02-10T09:10:00.533Z,19.35
2019-02-10T09:10:58.375Z,19.32
2019-02-10T09:11:58.935Z,19.33
2019-02-10T09:12:59.172Z,19.33
2019-02-10T09:13:58.727Z,19.35
2019-02-10T09:14:58.916Z,19.35
2019-02-10T09:16:00.044Z,19.35
2019-02-10T09:16:58.283Z,19.33
2019-02-10T09:18:00.058Z,19.36
2019-02-10T09:18:58.484Z,19.36
2019-02-10T09:19:59.236Z,19.36
2019-02-10T09:20:58.852Z,19.33
2019-02-10T09:21:58.196Z,19.36
2019-02-10T09:22:58.607Z,19.35
2019-02-10T09:23:58.391Z,19.35
2019-02-10T09:24:58.712Z,19.35
2019-02-10T09:25:58.335Z,19.37
2019-02-10T09:26:58.798Z,19.36
2019-02-10T09:27:58.789Z,19.37
2019-02-10T09:28:58.396Z,19.37
2019-02-10T09:29:59.091Z,19.37
2019-02-10T09:31:00.100Z,19.37
2019-02-10T09:31:58.362Z,19.36
2019-02-10T09:32:59.040Z,19.36
2019-02-10T09:33:59.031Z,19.35
2019-02-10T09:35:00.423Z,19.36
2019-02-10T09:35:58.561Z,19.36
2019-02-10T09:36:58.855Z,19.37
2019-02-10T09:37:58.373Z,19.36
2019-02-10T09:38:58.482Z,19.39
2019-02-10T09:39:58.558Z,19.39
2019-02-10T09:41:00.239Z,19.37
2019-02-10T09:41:58.394Z,19.42
2019-02-10T09:42:58.503Z,19.42
2019-02-10T09:43:58.346Z,19.43
2019-02-10T09:44:59.029Z,19.43
2019-02-10T09:45:58.626Z,19.45
2019-02-10T09:46:58.631Z,19.45
2019-02-10T09:47:59.047Z,19.52
2019-02-10T09:48:59.808Z,19.54
2019-02-10T09:49:58.322Z,19.54
2019-02-10T09:50:58.637Z,19.57
2019-02-10T09:51:58.199Z,19.58
2019-02-10T09:52:58.999Z,19.57
2019-02-10T09:53:58.529Z,19.57
2019-02-10T09:54:58.583Z,19.6
2019-02-10T09:55:58.659Z,19.61
2019-02-10T09:56:58.344Z,19.6
2019-02-10T09:58:00.116Z,19.61
2019-02-10T09:58:58.808Z,19.63
2019-02-10T09:59:58.511Z,19.64
2019-02-10T10:00:58.514Z,19.65
2019-02-10T10:01:58.858Z,19.65
2019-02-10T10:02:58.780Z,19.7
2019-02-10T10:03:58.808Z,19.7
2019-02-10T10:04:58.554Z,19.67
2019-02-10T10:05:58.412Z,19.68
2019-02-10T10:06:58.508Z,19.7
2019-02-10T10:07:58.574Z,19.71
2019-02-10T10:08:58.839Z,19.7
2019-02-10T10:09:58.321Z,19.67
2019-02-10T10:10:59.498Z,19.73
2019-02-10T10:11:59.315Z,19.73
2019-02-10T10:12:58.718Z,19.71
2019-02-10T10:13:58.724Z,19.74
2019-02-10T10:14:59.238Z,19.75
2019-02-10T10:15:58.333Z,19.75
2019-02-10T10:16:58.323Z,19.75
2019-02-10T10:17:58.864Z,19.74
2019-02-10T10:18:58.458Z,19.75
2019-02-10T10:19:58.769Z,19.78
2019-02-10T10:20:58.784Z,19.77
2019-02-10T10:21:58.653Z,19.77
2019-02-10T10:22:58.146Z,19.75
2019-02-10T10:24:00.102Z,19.77
2019-02-10T10:25:01.060Z,19.75
2019-02-10T10:25:58.300Z,19.77
2019-02-10T10:26:58.803Z,19.75
2019-02-10T10:27:58.434Z,19.78
2019-02-10T10:28:58.575Z,19.77
2019-02-10T10:29:58.351Z,19.74
2019-02-10T10:30:58.332Z,19.75
2019-02-10T10:31:58.407Z,19.8
2019-02-10T10:32:59.079Z,19.78
2019-02-10T10:33:58.561Z,19.78
2019-02-10T10:34:58.559Z,19.8
2019-02-10T10:35:58.784Z,19.78
2019-02-10T10:36:59.096Z,19.8
2019-02-10T10:37:58.789Z,19.81
2019-02-10T10:38:58.652Z,19.81
2019-02-10T10:39:58.472Z,19.81
2019-02-10T10:40:58.248Z,19.84
2019-02-10T10:42:00.150Z,19.82
2019-02-10T10:42:59.237Z,19.82
2019-02-10T10:43:58.458Z,19.81
2019-02-10T10:44:58.439Z,19.84
2019-02-10T10:45:58.780Z,19.85
2019-02-10T10:46:58.728Z,19.86
2019-02-10T10:47:58.359Z,19.88
2019-02-10T10:48:59.858Z,19.88
2019-02-10T10:49:58.212Z,19.89
2019-02-10T10:50:58.721Z,19.91
2019-02-10T10:51:58.918Z,19.91
2019-02-10T10:52:58.404Z,19.92
2019-02-10T10:54:00.143Z,19.91
2019-02-10T10:54:59.095Z,19.92
2019-02-10T10:55:59.149Z,19.91
2019-02-10T10:56:58.581Z,19.92
2019-02-10T10:57:59.237Z,19.92
2019-02-10T10:58:58.169Z,19.92
2019-02-10T10:59:58.551Z,19.93
2019-02-10T11:00:58.908Z,19.91
2019-02-10T11:02:00.098Z,19.93
2019-02-10T11:02:59.027Z,19.92
2019-02-10T11:03:58.706Z,19.95
2019-02-10T11:04:59.143Z,19.93
2019-02-10T11:06:00.941Z,19.92
2019-02-10T11:06:59.240Z,19.93
2019-02-10T11:07:58.551Z,19.93
2019-02-10T11:08:58.273Z,19.98
2019-02-10T11:09:59.062Z,19.92
2019-02-10T11:10:58.820Z,19.96
2019-02-10T11:11:58.287Z,20.02
2019-02-10T11:13:00.208Z,19.99
2019-02-10T11:13:59.381Z,19.98
2019-02-10T11:14:58.649Z,19.99
2019-02-10T11:15:59.730Z,20.02
2019-02-10T11:16:59.172Z,20.04
2019-02-10T11:17:58.670Z,20.01
2019-02-10T11:18:59.215Z,20.02
2019-02-10T11:19:59.726Z,20.07
2019-02-10T11:20:58.343Z,20.11
2019-02-10T11:21:58.361Z,20.12
2019-02-10T11:23:00.354Z,20.11
2019-02-10T11:23:58.767Z,20.13
2019-02-10T11:24:58.974Z,20.13
2019-02-10T11:25:58.875Z,20.15
2019-02-10T11:27:00.204Z,20.15
2019-02-10T11:27:58.681Z,20.16
2019-02-10T11:29:00.048Z,20.2
2019-02-10T11:29:58.606Z,20.19
2019-02-10T11:30:58.933Z,20.19
2019-02-10T11:31:59.134Z,20.23
2019-02-10T11:32:58.818Z,20.23
2019-02-10T11:33:58.641Z,20.25
2019-02-10T11:34:58.456Z,20.26
2019-02-10T11:35:58.362Z,20.26
2019-02-10T11:36:58.302Z,20.26
2019-02-10T11:37:58.194Z,20.3
2019-02-10T11:38:58.307Z,20.32
2019-02-10T11:39:58.445Z,20.33
2019-02-10T11:40:58.384Z,20.32
2019-02-10T11:41:58.400Z,20.3
2019-02-10T11:43:00.304Z,20.36
2019-02-10T11:43:58.385Z,20.33
2019-02-10T11:44:59.221Z,20.3
2019-02-10T11:45:58.827Z,20.26
2019-02-10T11:46:58.662Z,20.25
2019-02-10T11:47:58.853Z,20.23
2019-02-10T11:48:58.969Z,20.22
2019-02-10T11:49:58.765Z,20.22
2019-02-10T11:50:58.329Z,20.22
2019-02-10T11:51:58.573Z,20.23
2019-02-10T11:52:58.776Z,20.23
2019-02-10T11:53:58.348Z,20.19
2019-02-10T11:54:58.187Z,20.22
2019-02-10T11:56:00.300Z,20.22
2019-02-10T11:56:58.948Z,20.2
2019-02-10T11:57:58.334Z,20.19
2019-02-10T11:58:58.791Z,20.2
2019-02-10T11:59:58.265Z,20.22
2019-02-10T12:00:58.730Z,20.22
2019-02-10T12:01:59.043Z,20.2
2019-02-10T12:02:58.587Z,20.25
2019-02-10T12:03:58.238Z,20.25
2019-02-10T12:04:58.998Z,20.22
2019-02-10T12:05:58.302Z,20.25
2019-02-10T12:06:58.390Z,20.22
2019-02-10T12:07:59.283Z,20.23
2019-02-10T12:08:58.803Z,20.22
2019-02-10T12:09:58.870Z,20.2
2019-02-10T12:10:58.491Z,20.22
2019-02-10T12:11:58.562Z,20.22
2019-02-10T12:12:58.677Z,20.19
2019-02-10T12:14:00.338Z,20.19
2019-02-10T12:14:58.488Z,20.18
2019-02-10T12:15:58.853Z,20.18
2019-02-10T12:16:58.348Z,20.16
2019-02-10T12:17:58.296Z,20.15
2019-02-10T12:18:58.772Z,20.19
2019-02-10T12:19:58.394Z,20.13
2019-02-10T12:20:58.730Z,20.13
2019-02-10T12:21:58.895Z,20.13
2019-02-10T12:22:58.898Z,20.16
2019-02-10T12:23:58.324Z,20.11
2019-02-10T12:24:58.282Z,20.12
2019-02-10T12:25:58.819Z,20.11
2019-02-10T12:26:58.719Z,20.11
2019-02-10T12:27:59.142Z,20.08
2019-02-10T12:28:58.943Z,20.11
2019-02-10T12:29:58.327Z,20.09
2019-02-10T12:30:58.345Z,20.08
2019-02-10T12:31:58.234Z,20.08
2019-02-10T12:32:58.379Z,20.07
2019-02-10T12:33:58.347Z,20.07
2019-02-10T12:34:58.558Z,20.07
2019-02-10T12:35:59.608Z,20.08
2019-02-10T12:36:58.468Z,20.08
2019-02-10T12:37:58.768Z,20.04
2019-02-10T12:38:58.396Z,20.07
2019-02-10T12:40:00.555Z,20.08
2019-02-10T12:40:58.141Z,20.07
2019-02-10T12:41:58.724Z,20.08
2019-02-10T12:42:58.631Z,20.11
2019-02-10T12:43:59.220Z,20.08
2019-02-10T12:44:58.296Z,20.08
2019-02-10T12:45:58.763Z,20.09
2019-02-10T12:46:58.353Z,20.11
2019-02-10T12:47:58.406Z,20.11
2019-02-10T12:48:58.870Z,20.12
2019-02-10T12:49:58.241Z,20.11
2019-02-10T12:50:59.499Z,20.09
2019-02-10T12:51:58.350Z,20.11
2019-02-10T12:52:58.183Z,20.13
2019-02-10T12:53:58.409Z,20.12
2019-02-10T12:54:58.950Z,20.11